Maple Valley, Washington
Current Conditions -  °F | °C
As of 7:53 AM on Wednesday 28 Jan 2015 (Local Time) from KRNT Reporting Station
Overcast Overcast  
Wind Chill: 45°   Ceiling: 600
Heat Index: 45°   Visibility: 8mi
Dew Point: 44°   Wind: 0mph
Humidity: 97%   Direction: NA
Pressure: 30.36"   Gusts: NA
Location:  47.41°N, 122.04°W
Report Text: KRNT 281553Z 00000KT 8SM BKN006 OVC039 07/07 A3036 RMK AO2 SLP285 T00720067
Loading
Personal Weather Stations






























Interactive Weather Map New forecast layout! Learn more

10-Day Weather Forecast

Advertisements
Track Severe Weather on mobile